Time;durP1;ratioP1;P1;durP2;ratioP2;P2;SDS_P1;SDS_P2;PMS_P1;PMS_P2;Temp;Humidity;BMP_temperature;BMP_pressure;BME280_temperature;BME280_humidity;BME280_pressure;Samples;Min_cycle;Max_cycle;Signal;HPM_P1;HPM_P2
2022/04/25 00:02:42;;;;;;;4.82;2.00;;;;;;;;;;6154086;28;20066;-76
2022/04/25 00:05:44;;;;;;;5.63;2.50;;;;;;;;;;6151169;28;20402;-76
2022/04/25 00:08:46;;;;;;;16.35;7.55;;;;;;;;;;6153599;28;20147;-79
2022/04/25 00:11:48;;;;;;;9.93;5.05;;;;;;;;;;6158268;28;20118;-76
2022/04/25 00:14:49;;;;;;;21.05;10.80;;;;;;;;;;6157128;28;20385;-76
2022/04/25 00:17:53;;;;;;;3.58;1.40;;;;;;;;;;6152357;28;20063;-76
2022/04/25 00:20:56;;;;;;;3.40;0.90;;;;;;;;;;6151428;28;20106;-76
2022/04/25 00:23:58;;;;;;;2.87;0.77;;;;;;;;;;6151655;28;20090;-76
2022/04/25 00:27:00;;;;;;;3.33;0.90;;;;;;;;;;6154408;28;20062;-75
2022/04/25 00:30:01;;;;;;;2.55;0.65;;;;;;;;;;6154204;28;20059;-75
2022/04/25 00:33:06;;;;;;;1.90;0.98;;;;;;;;;;6155767;28;20042;-76
2022/04/25 00:36:08;;;;;;;2.05;0.90;;;;;;;;;;6156458;28;20346;-76
2022/04/25 00:39:10;;;;;;;3.92;1.38;;;;;;;;;;6169028;28;20082;-76
2022/04/25 00:42:12;;;;;;;3.80;0.90;;;;;;;;;;6176865;28;20055;-78
2022/04/25 00:45:14;;;;;;;4.45;0.82;;;;;;;;;;6156706;28;20122;-77
2022/04/25 00:48:17;;;;;;;1.15;0.80;;;;;;;;;;6157468;28;20076;-76
2022/04/25 00:51:22;;;;;;;5.00;1.20;;;;;;;;;;6155219;28;20145;-76
2022/04/25 00:54:25;;;;;;;4.13;1.10;;;;;;;;;;6158385;28;20155;-77
2022/04/25 00:57:27;;;;;;;3.50;1.05;;;;;;;;;;6171445;28;20051;-76
2022/04/25 01:00:29;;;;;;;5.70;1.30;;;;;;;;;;6178899;28;20127;-76
2022/04/25 01:03:32;;;;;;;3.85;1.55;;;;;;;;;;6183283;28;20462;-76
2022/04/25 01:06:34;;;;;;;2.97;1.20;;;;;;;;;;6170553;28;20059;-76
2022/04/25 01:09:36;;;;;;;3.72;1.20;;;;;;;;;;6155077;28;20302;-76
2022/04/25 01:12:38;;;;;;;3.25;1.13;;;;;;;;;;6154589;28;20067;-76
2022/04/25 01:15:40;;;;;;;2.58;1.33;;;;;;;;;;6156557;28;20420;-76
2022/04/25 01:18:43;;;;;;;4.00;1.42;;;;;;;;;;6148911;28;20065;-76
2022/04/25 01:21:50;;;;;;;1.75;1.10;;;;;;;;;;6153336;28;20055;-76
2022/04/25 01:28:15;;;;;;;2.28;1.23;;;;;;;;;;6155572;28;20251;-77
2022/04/25 01:31:18;;;;;;;3.22;0.93;;;;;;;;;;6154124;28;20078;-76
2022/04/25 01:34:20;;;;;;;5.75;1.50;;;;;;;;;;6151539;28;20057;-76
2022/04/25 01:37:22;;;;;;;4.07;1.13;;;;;;;;;;6152174;28;20046;-76
2022/04/25 01:40:25;;;;;;;4.13;1.23;;;;;;;;;;6151513;28;20148;-76
2022/04/25 01:43:28;;;;;;;5.05;1.13;;;;;;;;;;6169701;28;20061;-76
2022/04/25 01:46:31;;;;;;;4.53;1.30;;;;;;;;;;6174952;28;20136;-76
2022/04/25 01:49:33;;;;;;;4.57;1.20;;;;;;;;;;6178167;28;20051;-77
2022/04/25 01:52:35;;;;;;;2.42;1.30;;;;;;;;;;6168420;28;20062;-77
2022/04/25 01:55:38;;;;;;;3.42;1.20;;;;;;;;;;6148623;28;20231;-77
2022/04/25 01:58:39;;;;;;;3.38;0.93;;;;;;;;;;6155116;28;20067;-76
2022/04/25 02:01:41;;;;;;;1.95;1.27;;;;;;;;;;6149317;28;20067;-77
2022/04/25 02:04:43;;;;;;;2.65;1.20;;;;;;;;;;6148818;28;20105;-77
2022/04/25 02:07:44;;;;;;;2.38;1.08;;;;;;;;;;6153493;28;20067;-77
2022/04/25 02:11:19;;;;;;;6.32;1.20;;;;;;;;;;6150883;28;20093;-77
2022/04/25 02:14:10;;;;;;;2.28;1.33;;;;;;;;;;6156323;28;20130;-77
2022/04/25 02:17:13;;;;;;;6.05;1.48;;;;;;;;;;6153752;28;20063;-78
2022/04/25 02:20:15;;;;;;;7.78;1.30;;;;;;;;;;6149235;28;20065;-77
2022/04/25 02:23:17;;;;;;;3.40;1.00;;;;;;;;;;6152654;28;20054;-78
2022/04/25 02:26:20;;;;;;;5.57;1.08;;;;;;;;;;6157694;28;20106;-77
2022/04/25 02:29:22;;;;;;;4.68;1.38;;;;;;;;;;6156293;28;20059;-78
2022/04/25 02:32:24;;;;;;;3.17;1.05;;;;;;;;;;6152037;28;20353;-77
2022/04/25 02:35:25;;;;;;;3.55;1.30;;;;;;;;;;6146001;28;20334;-76
2022/04/25 02:38:27;;;;;;;5.10;1.10;;;;;;;;;;6152108;28;20079;-76
2022/04/25 02:41:30;;;;;;;4.03;1.23;;;;;;;;;;6151592;28;20047;-76
2022/04/25 02:44:32;;;;;;;2.00;1.02;;;;;;;;;;6150790;28;20058;-76
2022/04/25 02:47:33;;;;;;;3.85;1.30;;;;;;;;;;6145934;28;20107;-76
2022/04/25 02:50:35;;;;;;;2.45;0.95;;;;;;;;;;6153931;28;20387;-76
2022/04/25 02:53:37;;;;;;;1.85;1.30;;;;;;;;;;6148661;28;20275;-76
2022/04/25 02:56:40;;;;;;;3.33;1.30;;;;;;;;;;6148525;28;20159;-78
2022/04/25 02:59:41;;;;;;;3.22;0.98;;;;;;;;;;6152365;28;20111;-76
2022/04/25 03:02:43;;;;;;;2.85;1.02;;;;;;;;;;6161338;28;20115;-78
2022/04/25 03:05:46;;;;;;;3.63;1.10;;;;;;;;;;6156420;28;20050;-77
2022/04/25 03:08:48;;;;;;;2.47;0.95;;;;;;;;;;6152925;28;20282;-77
2022/04/25 03:11:51;;;;;;;1.73;0.80;;;;;;;;;;6162197;28;20227;-77
2022/04/25 03:14:53;;;;;;;3.40;1.17;;;;;;;;;;6156039;28;20062;-77
2022/04/25 03:17:54;;;;;;;3.03;1.02;;;;;;;;;;6158750;28;20297;-77
2022/04/25 03:20:56;;;;;;;2.63;1.02;;;;;;;;;;6157478;28;20086;-76
2022/04/25 03:23:58;;;;;;;2.05;0.80;;;;;;;;;;6156587;28;20098;-77
2022/04/25 03:27:01;;;;;;;3.42;1.02;;;;;;;;;;6150894;28;20098;-77
2022/04/25 03:30:03;;;;;;;4.60;1.00;;;;;;;;;;6155812;28;20051;-77
2022/04/25 03:33:04;;;;;;;1.90;0.90;;;;;;;;;;6155922;28;20110;-77
2022/04/25 03:36:06;;;;;;;3.28;0.95;;;;;;;;;;6157473;28;20058;-77
2022/04/25 03:39:08;;;;;;;2.42;1.20;;;;;;;;;;6153826;28;20095;-76
2022/04/25 03:42:11;;;;;;;2.20;0.93;;;;;;;;;;6152320;28;20381;-77
2022/04/25 03:45:15;;;;;;;3.28;1.33;;;;;;;;;;6159100;28;20055;-76
2022/04/25 03:48:16;;;;;;;2.75;0.85;;;;;;;;;;6149412;28;20130;-77
2022/04/25 03:51:18;;;;;;;4.22;1.00;;;;;;;;;;6155928;28;20070;-77
2022/04/25 03:57:36;;;;;;;3.15;0.80;;;;;;;;;;6154568;28;20062;-77
2022/04/25 04:00:38;;;;;;;3.22;1.10;;;;;;;;;;6150305;28;20060;-77
2022/04/25 04:03:39;;;;;;;3.05;1.00;;;;;;;;;;6156053;28;20050;-77
2022/04/25 04:06:41;;;;;;;2.58;1.15;;;;;;;;;;6151539;28;20404;-77
2022/04/25 04:09:49;;;;;;;5.43;1.10;;;;;;;;;;6154631;28;20334;-77
2022/04/25 04:12:52;;;;;;;2.47;1.05;;;;;;;;;;6153888;28;20098;-77
2022/04/25 04:15:56;;;;;;;5.60;1.17;;;;;;;;;;6158491;28;20078;-77
2022/04/25 04:18:57;;;;;;;2.00;1.08;;;;;;;;;;6151213;28;20354;-77
2022/04/25 04:22:01;;;;;;;3.03;1.35;;;;;;;;;;6153429;28;20114;-76
2022/04/25 04:25:03;;;;;;;3.35;1.33;;;;;;;;;;6153571;28;20074;-77
2022/04/25 04:28:06;;;;;;;5.35;1.27;;;;;;;;;;6154886;28;20055;-77
2022/04/25 04:31:08;;;;;;;3.40;1.30;;;;;;;;;;6151537;28;20090;-77
2022/04/25 04:34:10;;;;;;;3.53;2.00;;;;;;;;;;6152848;28;20334;-77
2022/04/25 04:37:11;;;;;;;3.83;1.90;;;;;;;;;;6160595;28;20274;-77
2022/04/25 04:40:31;;;;;;;5.53;1.70;;;;;;;;;;6149126;28;20059;-77
2022/04/25 04:43:34;;;;;;;5.55;2.17;;;;;;;;;;6156378;28;20051;-76
2022/04/25 04:46:36;;;;;;;5.50;2.00;;;;;;;;;;6176704;28;20050;-77
2022/04/25 04:49:37;;;;;;;4.72;2.42;;;;;;;;;;6157689;28;20056;-76
2022/04/25 04:52:39;;;;;;;4.07;1.98;;;;;;;;;;6153788;28;20055;-77
2022/04/25 04:55:40;;;;;;;4.55;2.50;;;;;;;;;;6151002;28;20401;-76
2022/04/25 04:58:43;;;;;;;5.60;2.40;;;;;;;;;;6153077;28;20135;-77
2022/04/25 05:01:45;;;;;;;4.25;2.50;;;;;;;;;;6149956;28;20098;-77
2022/04/25 05:04:46;;;;;;;6.10;2.70;;;;;;;;;;6151534;28;20108;-77
2022/04/25 05:07:48;;;;;;;7.20;2.83;;;;;;;;;;6148110;28;20059;-77
2022/04/25 05:10:50;;;;;;;6.47;2.63;;;;;;;;;;6152653;28;20107;-77
2022/04/25 05:13:53;;;;;;;7.88;3.17;;;;;;;;;;6150823;28;20094;-77
2022/04/25 05:16:54;;;;;;;3.78;2.40;;;;;;;;;;6153938;28;20063;-77
2022/04/25 05:19:56;;;;;;;5.88;2.90;;;;;;;;;;6156657;28;20051;-77
2022/04/25 05:22:57;;;;;;;4.20;2.92;;;;;;;;;;6163496;28;20357;-77
2022/04/25 05:25:59;;;;;;;6.10;2.88;;;;;;;;;;6158479;28;20046;-76
2022/04/25 05:29:02;;;;;;;5.75;2.28;;;;;;;;;;6150177;28;20054;-76
2022/04/25 05:32:05;;;;;;;4.45;2.45;;;;;;;;;;6152139;28;20080;-76
2022/04/25 05:35:07;;;;;;;5.75;2.88;;;;;;;;;;6154863;28;20070;-76
2022/04/25 05:38:10;;;;;;;3.97;2.60;;;;;;;;;;6155352;28;20067;-76
2022/04/25 05:41:12;;;;;;;5.13;2.95;;;;;;;;;;6159480;28;20043;-76
2022/04/25 05:44:16;;;;;;;4.45;2.47;;;;;;;;;;6154971;28;20051;-76
2022/04/25 05:47:17;;;;;;;4.00;2.50;;;;;;;;;;6154223;28;20066;-77
2022/04/25 05:53:38;;;;;;;4.05;2.20;;;;;;;;;;6146551;28;20079;-76
2022/04/25 05:56:40;;;;;;;3.78;1.70;;;;;;;;;;6153886;28;20415;-76
2022/04/25 05:59:43;;;;;;;8.30;2.05;;;;;;;;;;6159770;28;20059;-76
2022/04/25 06:02:46;;;;;;;2.80;1.58;;;;;;;;;;6154396;28;20059;-76
2022/04/25 06:05:48;;;;;;;5.25;1.90;;;;;;;;;;6152662;28;20059;-76
2022/04/25 06:08:50;;;;;;;6.60;2.10;;;;;;;;;;6155415;28;20055;-76
2022/04/25 06:11:52;;;;;;;4.72;1.77;;;;;;;;;;6150471;28;20098;-77
2022/04/25 06:14:55;;;;;;;5.00;1.90;;;;;;;;;;6157390;28;20070;-77
2022/04/25 06:17:57;;;;;;;8.13;2.33;;;;;;;;;;6146454;28;20268;-77
2022/04/25 06:20:59;;;;;;;5.50;1.80;;;;;;;;;;6157927;28;20047;-76
2022/04/25 06:24:00;;;;;;;3.80;1.80;;;;;;;;;;6152041;28;20103;-77
2022/04/25 06:27:03;;;;;;;4.93;1.88;;;;;;;;;;6153300;28;20105;-77
2022/04/25 06:30:07;;;;;;;4.15;1.85;;;;;;;;;;6152316;28;20043;-77
2022/04/25 06:33:09;;;;;;;6.60;2.30;;;;;;;;;;6156071;28;20119;-77
2022/04/25 06:36:10;;;;;;;3.35;1.70;;;;;;;;;;6149889;28;20095;-77
2022/04/25 06:39:12;;;;;;;3.60;1.65;;;;;;;;;;6151204;28;20059;-78
2022/04/25 06:42:14;;;;;;;3.90;1.60;;;;;;;;;;6146450;28;20106;-76
2022/04/25 06:45:17;;;;;;;2.70;1.35;;;;;;;;;;6149730;28;20052;-79
2022/04/25 06:48:18;;;;;;;3.07;1.37;;;;;;;;;;6156071;28;20107;-72
2022/04/25 06:51:20;;;;;;;5.28;1.63;;;;;;;;;;6149608;28;20052;-76
2022/04/25 06:54:24;;;;;;;3.75;1.42;;;;;;;;;;6148150;28;20048;-77
2022/04/25 06:57:25;;;;;;;2.55;1.40;;;;;;;;;;6147917;28;20058;-77
2022/04/25 07:00:28;;;;;;;4.03;1.30;;;;;;;;;;6151648;28;20346;-77
2022/04/25 07:03:30;;;;;;;2.67;1.30;;;;;;;;;;6150453;28;20068;-77
2022/04/25 07:06:31;;;;;;;4.57;1.60;;;;;;;;;;6148859;28;20798;-76
2022/04/25 07:09:33;;;;;;;5.85;1.40;;;;;;;;;;6145510;28;20047;-77
2022/04/25 07:12:35;;;;;;;5.78;1.80;;;;;;;;;;6177353;28;20352;-76
2022/04/25 07:15:38;;;;;;;5.65;1.30;;;;;;;;;;6175665;28;20106;-77
2022/04/25 07:18:40;;;;;;;4.18;1.48;;;;;;;;;;6172806;28;20054;-76
2022/04/25 07:31:40;;;;;;;4.25;1.30;;;;;;;;;;6177156;28;20349;-74
2022/04/25 07:34:43;;;;;;;4.93;1.63;;;;;;;;;;6173821;28;20054;-75
2022/04/25 07:37:45;;;;;;;5.32;1.45;;;;;;;;;;6172034;28;20188;-75
2022/04/25 07:40:46;;;;;;;5.57;1.80;;;;;;;;;;6171818;28;20070;-75
2022/04/25 07:43:48;;;;;;;5.28;1.38;;;;;;;;;;6169665;28;20058;-76
2022/04/25 07:46:51;;;;;;;12.35;1.88;;;;;;;;;;6171280;28;20114;-82
2022/04/25 07:49:53;;;;;;;6.82;1.50;;;;;;;;;;6181477;28;20329;-78
2022/04/25 07:52:55;;;;;;;3.53;1.10;;;;;;;;;;6182072;28;20290;-75
2022/04/25 07:55:56;;;;;;;4.00;1.33;;;;;;;;;;6180950;28;20059;-75
2022/04/25 07:59:00;;;;;;;3.65;1.30;;;;;;;;;;6181694;28;20066;-76
2022/04/25 08:02:03;;;;;;;2.88;1.23;;;;;;;;;;6181843;28;20110;-76
2022/04/25 08:05:05;;;;;;;2.70;1.10;;;;;;;;;;6177733;28;20074;-75
2022/04/25 08:08:09;;;;;;;4.50;1.15;;;;;;;;;;6177059;28;20417;-75
2022/04/25 08:11:11;;;;;;;3.83;1.08;;;;;;;;;;6177684;28;20337;-76
2022/04/25 08:20:53;;;;;;;3.38;1.10;;;;;;;;;;6177095;28;20205;-76
2022/04/25 08:23:54;;;;;;;3.40;1.05;;;;;;;;;;6178704;28;20055;-76
2022/04/25 08:26:56;;;;;;;1.42;0.90;;;;;;;;;;6179862;28;20063;-76
2022/04/25 08:29:59;;;;;;;2.55;0.90;;;;;;;;;;6178232;28;20199;-76
2022/04/25 08:33:02;;;;;;;2.17;1.13;;;;;;;;;;6181207;28;20051;-76
2022/04/25 08:36:04;;;;;;;1.83;0.88;;;;;;;;;;6176276;28;20066;-76
2022/04/25 08:39:05;;;;;;;2.03;1.02;;;;;;;;;;6176858;28;20054;-76
2022/04/25 08:42:09;;;;;;;2.55;1.08;;;;;;;;;;6175452;28;20119;-76
2022/04/25 08:45:11;;;;;;;2.88;1.23;;;;;;;;;;6178602;28;20113;-76
2022/04/25 08:48:14;;;;;;;2.80;1.02;;;;;;;;;;6173116;28;20334;-76
2022/04/25 08:51:17;;;;;;;4.00;1.30;;;;;;;;;;6173404;28;20129;-74
2022/04/25 08:54:18;;;;;;;6.28;1.02;;;;;;;;;;6174165;28;20067;-74
2022/04/25 08:57:20;;;;;;;4.13;1.10;;;;;;;;;;6178137;28;20326;-75
2022/04/25 09:00:22;;;;;;;4.28;1.10;;;;;;;;;;6178988;28;20322;-75
2022/04/25 09:03:25;;;;;;;1.90;1.10;;;;;;;;;;6182791;28;20330;-75
2022/04/25 09:06:27;;;;;;;2.17;1.00;;;;;;;;;;6175638;28;20121;-75
2022/04/25 09:09:29;;;;;;;4.63;1.25;;;;;;;;;;6179676;28;20105;-74
2022/04/25 09:12:31;;;;;;;3.42;1.10;;;;;;;;;;6177862;28;20046;-75
2022/04/25 09:15:34;;;;;;;2.13;1.40;;;;;;;;;;6180797;28;20246;-75
2022/04/25 09:18:37;;;;;;;2.15;1.23;;;;;;;;;;6164539;28;20051;-75
2022/04/25 09:21:41;;;;;;;2.58;1.27;;;;;;;;;;6148171;28;20063;-76
2022/04/25 09:24:45;;;;;;;2.13;1.10;;;;;;;;;;6151879;28;20102;-76
2022/04/25 09:27:47;;;;;;;3.85;1.30;;;;;;;;;;6153861;28;20075;-76
2022/04/25 09:30:56;;;;;;;2.83;1.20;;;;;;;;;;6152697;28;20055;-71
2022/04/25 09:34:15;;;;;;;2.13;1.00;;;;;;;;;;6157502;28;20047;-71
2022/04/25 09:37:17;;;;;;;3.75;1.15;;;;;;;;;;6156073;28;20063;-72
2022/04/25 09:40:20;;;;;;;2.00;0.93;;;;;;;;;;6149539;28;20244;-76
2022/04/25 09:43:29;;;;;;;1.20;0.85;;;;;;;;;;6156036;28;20047;-75
2022/04/25 09:46:47;;;;;;;5.05;1.10;;;;;;;;;;6152182;28;20115;-76
2022/04/25 09:49:58;;;;;;;3.53;1.13;;;;;;;;;;6154955;29;20258;-75
2022/04/25 09:53:02;;;;;;;3.78;1.33;;;;;;;;;;6153271;28;20066;-76
2022/04/25 09:56:10;;;;;;;1.63;0.90;;;;;;;;;;6156577;28;20046;-76
2022/04/25 09:59:12;;;;;;;2.90;1.52;;;;;;;;;;6166013;28;20047;-76
2022/04/25 10:02:21;;;;;;;1.50;1.10;;;;;;;;;;6183130;28;20055;-74
2022/04/25 10:05:24;;;;;;;2.67;1.52;;;;;;;;;;6177920;28;20066;-74
2022/04/25 10:08:25;;;;;;;3.33;1.55;;;;;;;;;;6178929;28;20051;-81
2022/04/25 10:11:31;;;;;;;4.63;1.25;;;;;;;;;;6179854;28;20121;-78
2022/04/25 10:14:33;;;;;;;1.63;1.10;;;;;;;;;;6178403;28;20070;-81
2022/04/25 10:17:38;;;;;;;3.20;1.17;;;;;;;;;;6177894;28;20074;-80
2022/04/25 10:20:42;;;;;;;4.38;1.25;;;;;;;;;;6158028;28;20090;-74
2022/04/25 10:23:45;;;;;;;2.30;1.27;;;;;;;;;;6158186;28;20051;-74
2022/04/25 10:26:47;;;;;;;5.85;1.30;;;;;;;;;;6149135;28;20079;-74
2022/04/25 10:29:50;;;;;;;;;;;;;;;;;;6151854;28;20066;-79
2022/04/25 10:32:51;;;;;;;3.72;1.10;;;;;;;;;;6154147;28;19957;-81
2022/04/25 10:35:55;;;;;;;1.63;1.30;;;;;;;;;;6152691;28;20061;-77
2022/04/25 10:39:12;;;;;;;1.88;1.30;;;;;;;;;;6150145;28;20064;-77
2022/04/25 10:45:53;;;;;;;2.70;1.23;;;;;;;;;;6146957;28;20047;-70
2022/04/25 10:49:05;;;;;;;2.30;1.13;;;;;;;;;;6148083;28;20073;-70
2022/04/25 10:52:53;;;;;;;4.00;1.20;;;;;;;;;;6141048;28;20114;-71
2022/04/25 10:56:08;;;;;;;4.68;1.30;;;;;;;;;;6146926;28;20059;-74
2022/04/25 10:59:23;;;;;;;2.10;1.15;;;;;;;;;;6156583;28;20055;-75
2022/04/25 11:02:26;;;;;;;1.65;0.93;;;;;;;;;;6151757;28;20199;-72
2022/04/25 11:05:35;;;;;;;3.67;1.65;;;;;;;;;;6151247;28;20118;-73
2022/04/25 11:08:39;;;;;;;8.75;3.03;;;;;;;;;;6171724;28;20333;-74
2022/04/25 11:11:47;;;;;;;4.68;1.67;;;;;;;;;;6152846;28;20565;-73
2022/04/25 11:14:58;;;;;;;3.42;1.40;;;;;;;;;;6151494;28;20071;-81
2022/04/25 11:18:22;;;;;;;3.75;1.20;;;;;;;;;;6150530;28;20114;-81
2022/04/25 11:21:32;;;;;;;4.10;2.00;;;;;;;;;;6152915;28;20055;-77
2022/04/25 11:24:38;;;;;;;4.47;1.90;;;;;;;;;;6158842;28;20162;-76
2022/04/25 11:28:01;;;;;;;2.97;1.60;;;;;;;;;;6156717;28;20123;-76
2022/04/25 11:31:22;;;;;;;4.60;1.50;;;;;;;;;;6154226;28;20073;-70
2022/04/25 11:34:24;;;;;;;5.70;1.88;;;;;;;;;;6158957;28;20887;-76
2022/04/25 11:37:27;;;;;;;4.78;1.30;;;;;;;;;;6158929;28;20059;-76
2022/04/25 11:40:30;;;;;;;3.70;1.15;;;;;;;;;;6153549;28;20051;-73
2022/04/25 11:43:33;;;;;;;2.50;1.20;;;;;;;;;;6155772;28;20166;-74
2022/04/25 11:46:36;;;;;;;4.18;1.00;;;;;;;;;;6161072;28;20059;-82
2022/04/25 11:49:38;;;;;;;2.13;1.20;;;;;;;;;;6160161;28;20055;-75
2022/04/25 11:52:45;;;;;;;3.80;1.20;;;;;;;;;;6158953;28;20158;-75
2022/04/25 11:55:49;;;;;;;3.88;1.25;;;;;;;;;;6157612;28;20324;-75
2022/04/25 11:58:51;;;;;;;1.35;1.10;;;;;;;;;;6176632;28;20050;-79
2022/04/25 12:01:53;;;;;;;2.45;0.90;;;;;;;;;;6174476;28;20093;-79
2022/04/25 12:04:54;;;;;;;3.50;1.20;;;;;;;;;;6180186;28;20058;-79
2022/04/25 12:17:56;;;;;;;2.22;1.20;;;;;;;;;;6158080;28;20266;-79
2022/04/25 12:21:03;;;;;;;3.83;1.20;;;;;;;;;;6157392;28;20054;-79
2022/04/25 12:24:05;;;;;;;3.33;1.50;;;;;;;;;;6154777;28;20070;-78
2022/04/25 12:27:13;;;;;;;2.53;1.30;;;;;;;;;;6151457;28;20055;-80
2022/04/25 12:30:15;;;;;;;2.00;1.27;;;;;;;;;;6154807;28;20063;-79
2022/04/25 12:33:18;;;;;;;1.80;1.27;;;;;;;;;;6152749;28;20063;-80
2022/04/25 12:36:21;;;;;;;2.70;1.50;;;;;;;;;;6155023;28;20365;-78
2022/04/25 12:39:24;;;;;;;2.75;1.60;;;;;;;;;;6154414;28;20057;-80
2022/04/25 12:42:44;;;;;;;2.80;1.13;;;;;;;;;;6160399;28;20058;-79
2022/04/25 12:45:49;;;;;;;3.45;1.30;;;;;;;;;;6179425;28;20382;-79
2022/04/25 12:49:13;;;;;;;3.92;1.33;;;;;;;;;;6170163;28;20126;-79
2022/04/25 12:52:16;;;;;;;2.10;1.25;;;;;;;;;;6175296;28;20309;-80
2022/04/25 12:55:18;;;;;;;3.03;1.30;;;;;;;;;;6181070;28;20074;-80
2022/04/25 12:58:21;;;;;;;2.90;1.27;;;;;;;;;;6174492;28;20047;-80
2022/04/25 13:01:37;;;;;;;2.90;1.08;;;;;;;;;;6179182;28;20047;-80
2022/04/25 13:04:52;;;;;;;2.85;1.38;;;;;;;;;;6161378;28;20093;-82
2022/04/25 13:07:54;;;;;;;1.35;1.08;;;;;;;;;;6172890;28;20103;-80
2022/04/25 13:10:55;;;;;;;2.17;0.90;;;;;;;;;;6154087;28;20335;-82
2022/04/25 13:14:00;;;;;;;42.20;31.88;;;;;;;;;;6155825;28;21908;-78
2022/04/25 13:17:01;;;;;;;52.40;34.17;;;;;;;;;;6154325;28;20060;-80
2022/04/25 13:20:04;;;;;;;2.63;1.73;;;;;;;;;;6152013;28;20062;-77
2022/04/25 13:23:07;;;;;;;6.47;1.17;;;;;;;;;;6155960;28;20051;-77
2022/04/25 13:26:10;;;;;;;1.65;0.90;;;;;;;;;;6149778;28;20072;-77
2022/04/25 13:29:13;;;;;;;3.15;1.13;;;;;;;;;;6152112;28;20342;-77
2022/04/25 13:32:14;;;;;;;3.00;1.17;;;;;;;;;;6149514;28;20346;-77
2022/04/25 13:35:17;;;;;;;3.13;1.23;;;;;;;;;;6150905;28;20091;-77
2022/04/25 13:38:19;;;;;;;2.50;1.30;;;;;;;;;;6153712;28;20118;-77
2022/04/25 13:41:20;;;;;;;3.00;1.20;;;;;;;;;;6152141;28;20055;-77
2022/04/25 13:44:23;;;;;;;2.55;1.00;;;;;;;;;;6155154;28;20047;-77
2022/04/25 13:47:26;;;;;;;2.72;1.05;;;;;;;;;;6150676;28;20199;-77
2022/04/25 13:50:28;;;;;;;;;;;;;;;;;;6144572;28;20114;-76
2022/04/25 13:53:29;;;;;;;1.83;0.82;;;;;;;;;;6152503;28;19918;-77
2022/04/25 13:56:31;;;;;;;4.47;1.08;;;;;;;;;;6151910;28;20150;-77
2022/04/25 13:59:34;;;;;;;3.67;1.25;;;;;;;;;;6153012;28;20063;-77
2022/04/25 14:06:00;;;;;;;1.65;0.90;;;;;;;;;;6158807;28;20231;-78
2022/04/25 14:09:02;;;;;;;3.10;1.00;;;;;;;;;;6152193;28;20078;-78
2022/04/25 14:12:05;;;;;;;2.40;1.10;;;;;;;;;;6149049;28;20344;-77
2022/04/25 14:15:09;;;;;;;2.20;1.10;;;;;;;;;;6152040;28;20322;-77
2022/04/25 14:18:11;;;;;;;4.13;1.63;;;;;;;;;;6131508;28;20290;-75
2022/04/25 14:21:12;;;;;;;2.58;1.10;;;;;;;;;;6155822;28;20098;-77
2022/04/25 14:24:14;;;;;;;1.75;1.13;;;;;;;;;;6149368;28;20066;-81
2022/04/25 14:27:15;;;;;;;1.83;1.10;;;;;;;;;;6152922;28;20114;-78
2022/04/25 14:30:18;;;;;;;2.00;1.15;;;;;;;;;;6170476;28;20047;-76
2022/04/25 14:33:22;;;;;;;2.80;1.25;;;;;;;;;;6176145;28;20273;-79
2022/04/25 14:36:23;;;;;;;6.53;1.80;;;;;;;;;;6174854;28;20058;-78
2022/04/25 14:39:25;;;;;;;3.03;1.40;;;;;;;;;;6176486;28;20046;-78
2022/04/25 14:42:26;;;;;;;10.25;1.52;;;;;;;;;;6176345;28;20157;-77
2022/04/25 14:45:29;;;;;;;15.05;8.55;;;;;;;;;;6168426;28;20047;-78
2022/04/25 14:48:32;;;;;;;4.13;2.40;;;;;;;;;;6170287;28;20124;-75
2022/04/25 14:54:52;;;;;;;3.00;1.55;;;;;;;;;;6162089;28;20059;-75
2022/04/25 14:57:54;;;;;;;3.13;1.55;;;;;;;;;;6156776;28;20059;-75
2022/04/25 15:00:57;;;;;;;2.83;1.30;;;;;;;;;;6158988;28;20059;-74
2022/04/25 15:03:59;;;;;;;2.95;1.60;;;;;;;;;;6156507;28;20240;-74
2022/04/25 15:07:00;;;;;;;3.85;1.30;;;;;;;;;;6155796;28;20110;-75
2022/04/25 15:10:02;;;;;;;2.42;1.60;;;;;;;;;;6159935;28;20043;-75
2022/04/25 15:13:04;;;;;;;3.40;1.50;;;;;;;;;;6155972;28;20291;-74
2022/04/25 15:16:07;;;;;;;3.13;1.50;;;;;;;;;;6152154;28;20051;-75
2022/04/25 15:19:08;;;;;;;4.40;1.60;;;;;;;;;;6155777;28;20067;-75
2022/04/25 15:22:10;;;;;;;4.35;1.50;;;;;;;;;;6155732;28;20046;-74
2022/04/25 15:25:12;;;;;;;2.03;1.50;;;;;;;;;;6154917;28;20099;-75
2022/04/25 15:28:13;;;;;;;5.38;1.65;;;;;;;;;;6154703;28;20052;-75
2022/04/25 15:31:16;;;;;;;3.85;1.48;;;;;;;;;;6154651;28;20091;-74
2022/04/25 15:34:18;;;;;;;2.92;1.60;;;;;;;;;;6153650;28;20157;-74
2022/04/25 15:37:19;;;;;;;2.60;1.50;;;;;;;;;;6167099;28;20046;-75
2022/04/25 15:40:21;;;;;;;4.50;1.45;;;;;;;;;;6155664;28;20326;-76
2022/04/25 15:43:23;;;;;;;2.03;1.35;;;;;;;;;;6149353;28;20338;-76
2022/04/25 15:46:26;;;;;;;3.13;1.48;;;;;;;;;;6147844;28;20051;-75
2022/04/25 15:49:27;;;;;;;4.35;1.90;;;;;;;;;;6146218;28;20047;-75
2022/04/25 15:52:29;;;;;;;4.45;1.70;;;;;;;;;;6149398;28;20051;-75
2022/04/25 15:58:50;;;;;;;2.72;1.52;;;;;;;;;;6148325;28;20314;-75
2022/04/25 16:01:53;;;;;;;2.15;1.40;;;;;;;;;;6147489;28;20054;-75
2022/04/25 16:04:54;;;;;;;4.00;1.95;;;;;;;;;;6161399;28;20063;-75
2022/04/25 16:07:56;;;;;;;4.25;1.80;;;;;;;;;;6179348;28;20059;-74
2022/04/25 16:11:00;;;;;;;3.83;1.90;;;;;;;;;;6184933;28;20305;-75
2022/04/25 16:14:01;;;;;;;4.32;2.10;;;;;;;;;;6175728;28;20047;-75
2022/04/25 16:17:05;;;;;;;5.18;2.30;;;;;;;;;;6182703;28;20066;-75
2022/04/25 16:20:07;;;;;;;;;;;;;;;;;;6176217;28;20062;-75
2022/04/25 16:23:13;;;;;;;5.75;2.63;;;;;;;;;;6179295;28;20197;-76
2022/04/25 16:26:14;;;;;;;4.00;2.10;;;;;;;;;;6180622;28;20107;-74
2022/04/25 16:29:16;;;;;;;4.00;2.17;;;;;;;;;;6185720;28;20341;-74
2022/04/25 16:32:19;;;;;;;5.55;3.30;;;;;;;;;;6182493;28;20055;-74
2022/04/25 16:35:22;;;;;;;6.30;3.72;;;;;;;;;;6155557;28;20102;-75
2022/04/25 16:38:24;;;;;;;7.93;3.78;;;;;;;;;;6151519;28;20130;-73
2022/04/25 16:41:26;;;;;;;6.47;3.88;;;;;;;;;;6158501;28;20118;-75
2022/04/25 16:44:27;;;;;;;5.78;3.88;;;;;;;;;;6155396;28;20043;-74
2022/04/25 16:47:30;;;;;;;4.55;3.38;;;;;;;;;;6150947;28;20110;-75
2022/04/25 16:50:32;;;;;;;4.88;3.20;;;;;;;;;;6146301;28;20063;-75
2022/04/25 16:53:34;;;;;;;4.13;3.67;;;;;;;;;;6149739;28;20095;-75
2022/04/25 16:56:36;;;;;;;6.55;4.30;;;;;;;;;;6156208;28;20070;-75
2022/04/25 16:59:38;;;;;;;7.95;3.50;;;;;;;;;;6152849;28;20278;-75
2022/04/25 17:02:41;;;;;;;5.07;3.72;;;;;;;;;;6145638;28;20079;-75
2022/04/25 17:05:42;;;;;;;7.57;3.92;;;;;;;;;;6154375;28;20058;-75
2022/04/25 17:08:45;;;;;;;6.65;3.88;;;;;;;;;;6156252;28;20063;-84
2022/04/25 17:11:47;;;;;;;4.85;3.50;;;;;;;;;;6151480;28;20052;-84
2022/04/25 17:14:49;;;;;;;5.70;3.35;;;;;;;;;;6155812;28;20257;-84
2022/04/25 17:17:52;;;;;;;7.82;3.78;;;;;;;;;;6151952;28;20127;-84
2022/04/25 17:20:54;;;;;;;6.88;4.18;;;;;;;;;;6151775;28;20226;-78
2022/04/25 17:23:55;;;;;;;7.03;4.05;;;;;;;;;;6166354;28;20055;-78
2022/04/25 17:26:57;;;;;;;5.50;3.15;;;;;;;;;;6154132;28;20051;-78
2022/04/25 17:29:59;;;;;;;5.60;2.95;;;;;;;;;;6154903;28;20067;-75
2022/04/25 17:36:38;;;;;;;4.82;2.90;;;;;;;;;;6104095;29;20103;-76
